« Lisboa... | Accueil | La vie amoureuse des rennes... »

19 déc 2007

Commentaires

anonyme

Ca ressemble à Ajaccio...

le voyageur

youpi! :-)

pour fêter le retour du quizz de la fille de l'air et célébrer ma bonne réponse, je propose qu'on aille tous faire la fête à Ibiza (clin d'oeil à mgbg) puis on pourra aller se reposer les doigts de pieds en éventail à Palma, qu'en pensez-vous? c'est-y pas une bonne idée, ça? ;-)))

Bonne année
gros bisous
a+

La Fille de l'Air

Alors l'un de vous deux a raison et ... c'est le voyageur.
Oui c'est bien le terrain de Palma de Mallorca.
Suite au prochain quizz ! :-)

mgbg

je pensais à ibiza???

mgbg

ibiza????

le voyageur

d'ailleurs voici le METAR dispo en ce moment:
METAR : LEPA 191400Z 06010KT 9999 FEW025 SCT035 13/07 Q1029 NOSIG

bon vol ;-)
a+

le voyageur

Ne serait-ce pas l'aéroport de Palma de Mallorca, aussi connu des professionnels de l'aviation sous LEPA, situé à Lat=39°33'6"N/Lon=2°44'19"E, Alt=32 ft (10m)? alors? j'ai bon? ;-)))

L'utilisation des commentaires est désactivée pour cette note.

Ma Photo

© La Fille de l'Air 2010

  • Creative Commons License

Twitter


Instagram


  • Instagram

Pinterest

Mes Stats

  • By StatCounter